Time;durP1;ratioP1;P1;durP2;ratioP2;P2;SDS_P1;SDS_P2;PMS_P1;PMS_P2;Temp;Humidity;BMP_temperature;BMP_pressure;BME280_temperature;BME280_humidity;BME280_pressure;Samples;Min_cycle;Max_cycle;Signal;HPM_P1;HPM_P2
2022/02/22 00:00:17;;;;;;;7.30;3.13;;;5.40;99.90;;;;;;5029463;28;20038;-58
2022/02/22 00:02:44;;;;;;;3.80;2.47;;;5.40;99.90;;;;;;5017496;28;20087;-57
2022/02/22 00:05:10;;;;;;;3.60;2.35;;;5.50;99.90;;;;;;5025478;28;20553;-59
2022/02/22 00:07:37;;;;;;;3.90;2.60;;;5.50;99.90;;;;;;5024744;28;20056;-59
2022/02/22 00:10:04;;;;;;;4.88;1.98;;;5.40;99.90;;;;;;5020706;28;20030;-57
2022/02/22 00:12:30;;;;;;;5.60;2.25;;;5.50;99.90;;;;;;5015534;28;20046;-56
2022/02/22 00:14:55;;;;;;;6.10;2.30;;;5.60;99.90;;;;;;5026182;28;20037;-56
2022/02/22 00:17:21;;;;;;;5.28;2.15;;;5.50;99.90;;;;;;5012681;28;20034;-58
2022/02/22 00:19:46;;;;;;;3.33;1.95;;;5.40;99.90;;;;;;5013274;28;20072;-54
2022/02/22 00:22:12;;;;;;;3.47;1.85;;;5.40;99.90;;;;;;4998840;28;20042;-58
2022/02/22 00:24:38;;;;;;;3.60;2.17;;;5.50;99.90;;;;;;5016882;28;20021;-58
2022/02/22 00:27:04;;;;;;;3.60;1.80;;;5.50;99.90;;;;;;5007789;28;20108;-57
2022/02/22 00:29:30;;;;;;;4.05;2.45;;;5.60;99.90;;;;;;5022450;28;20464;-58
2022/02/22 00:31:56;;;;;;;3.95;2.13;;;5.50;99.90;;;;;;5018575;28;20069;-57
2022/02/22 00:34:21;;;;;;;3.00;1.70;;;5.40;99.90;;;;;;5029119;28;20039;-54
2022/02/22 00:36:48;;;;;;;7.18;1.85;;;5.40;99.90;;;;;;5017925;28;20041;-57
2022/02/22 00:39:13;;;;;;;6.20;2.60;;;5.40;99.90;;;;;;5032257;28;20095;-56
2022/02/22 00:41:39;;;;;;;8.98;2.60;;;5.40;99.90;;;;;;5022548;28;20029;-58
2022/02/22 00:44:06;;;;;;;2.88;2.03;;;5.40;99.90;;;;;;5027144;28;20029;-59
2022/02/22 00:46:33;;;;;;;4.35;1.83;;;5.50;99.90;;;;;;5013439;28;20054;-57
2022/02/22 00:48:58;;;;;;;6.30;2.00;;;5.60;99.90;;;;;;5012501;28;20036;-56
2022/02/22 00:51:24;;;;;;;3.95;1.70;;;5.60;99.90;;;;;;5012788;28;20029;-57
2022/02/22 00:53:49;;;;;;;2.00;1.70;;;5.60;99.90;;;;;;5012593;28;20068;-56
2022/02/22 00:56:15;;;;;;;4.80;1.60;;;5.60;99.90;;;;;;5013233;28;20647;-59
2022/02/22 00:58:41;;;;;;;3.92;2.05;;;5.70;99.90;;;;;;5018449;28;20562;-59
2022/02/22 01:01:07;;;;;;;3.88;1.67;;;5.70;99.90;;;;;;5013102;28;20038;-58
2022/02/22 01:03:32;;;;;;;5.53;2.30;;;5.60;99.90;;;;;;5012652;28;20421;-56
2022/02/22 01:05:58;;;;;;;8.02;2.28;;;5.60;99.90;;;;;;5013202;28;20026;-58
2022/02/22 01:08:23;;;;;;;5.75;2.03;;;5.70;99.90;;;;;;5012722;28;20034;-58
2022/02/22 01:10:49;;;;;;;7.20;2.13;;;5.60;99.90;;;;;;5013274;28;20476;-57
2022/02/22 01:13:15;;;;;;;8.50;2.40;;;5.60;99.90;;;;;;5013124;28;20041;-59
2022/02/22 01:15:41;;;;;;;5.53;2.25;;;5.60;99.90;;;;;;5013424;28;20050;-57
2022/02/22 01:18:06;;;;;;;6.43;1.92;;;5.60;99.90;;;;;;5013353;28;20544;-58
2022/02/22 01:20:32;;;;;;;11.60;3.25;;;5.60;99.90;;;;;;5013429;28;20046;-57
2022/02/22 01:22:58;;;;;;;7.70;2.40;;;5.50;99.90;;;;;;5014996;28;20073;-56
2022/02/22 01:25:28;;;;;;;7.25;2.60;;;5.60;99.90;;;;;;5014450;28;20184;-57
2022/02/22 01:27:54;;;;;;;6.65;2.38;;;5.60;99.90;;;;;;5013189;28;20128;-57
2022/02/22 01:30:20;;;;;;;7.30;3.03;;;5.70;99.90;;;;;;5017704;28;20037;-58
2022/02/22 01:32:46;;;;;;;5.05;2.30;;;5.80;99.90;;;;;;5017991;28;20037;-58
2022/02/22 01:35:13;;;;;;;6.68;2.72;;;5.70;99.90;;;;;;5018301;28;20041;-57
2022/02/22 01:37:39;;;;;;;12.18;3.45;;;5.60;99.90;;;;;;5016743;28;20034;-55
2022/02/22 01:40:06;;;;;;;7.53;2.50;;;5.60;99.90;;;;;;5016211;28;20037;-57
2022/02/22 01:42:32;;;;;;;9.23;3.20;;;5.70;99.90;;;;;;5018080;28;20076;-57
2022/02/22 01:44:57;;;;;;;8.10;2.60;;;5.70;99.90;;;;;;5029837;28;20030;-58
2022/02/22 01:47:23;;;;;;;4.05;2.30;;;5.70;99.90;;;;;;5015977;28;20049;-58
2022/02/22 01:49:49;;;;;;;10.13;2.10;;;5.60;99.90;;;;;;5016307;28;20030;-58
2022/02/22 01:52:15;;;;;;;7.35;2.80;;;5.60;99.90;;;;;;5016178;28;20065;-55
2022/02/22 01:54:42;;;;;;;4.63;2.15;;;5.80;99.90;;;;;;5016339;28;20125;-57
2022/02/22 01:57:07;;;;;;;6.07;2.00;;;5.80;99.90;;;;;;5016286;28;20069;-56
2022/02/22 01:59:34;;;;;;;5.18;2.40;;;5.80;99.90;;;;;;5016416;28;20065;-54
2022/02/22 02:02:00;;;;;;;6.45;1.98;;;5.80;99.90;;;;;;5016126;28;20498;-54
2022/02/22 02:04:29;;;;;;;6.75;2.40;;;5.90;99.90;;;;;;5016402;28;20061;-55
2022/02/22 02:06:58;;;;;;;4.50;2.13;;;5.90;99.90;;;;;;5016752;28;20243;-52
2022/02/22 02:09:24;;;;;;;4.00;1.70;;;6.00;99.90;;;;;;5016301;28;20026;-54
2022/02/22 02:11:53;;;;;;;5.70;2.53;;;5.90;99.90;;;;;;5015459;28;20098;-56
2022/02/22 02:14:19;;;;;;;8.25;2.83;;;5.90;99.90;;;;;;5014655;28;20061;-57
2022/02/22 02:16:45;;;;;;;8.68;2.40;;;5.90;99.90;;;;;;5014368;28;20046;-57
2022/02/22 02:19:14;;;;;;;6.35;2.63;;;5.90;99.90;;;;;;5016162;28;20042;-56
2022/02/22 02:21:41;;;;;;;10.23;3.45;;;5.70;99.90;;;;;;5015181;28;20065;-57
2022/02/22 02:24:18;;;;;;;6.18;2.03;;;5.80;99.90;;;;;;5015132;28;20026;-57
2022/02/22 02:26:45;;;;;;;3.20;1.70;;;5.80;99.90;;;;;;5015431;28;20022;-57
2022/02/22 02:29:13;;;;;;;5.55;2.20;;;5.90;99.90;;;;;;5015542;28;20030;-56
2022/02/22 02:31:41;;;;;;;5.13;2.50;;;6.00;99.90;;;;;;5013936;28;20061;-57
2022/02/22 02:34:09;;;;;;;4.63;1.95;;;6.00;99.90;;;;;;5013705;28;20387;-56
2022/02/22 02:36:36;;;;;;;8.10;2.30;;;6.00;99.90;;;;;;5013974;28;20057;-56
2022/02/22 02:39:04;;;;;;;5.25;2.03;;;6.00;99.90;;;;;;5005119;28;20026;-57
2022/02/22 02:41:30;;;;;;;10.57;2.58;;;5.90;99.90;;;;;;5014582;28;20072;-57
2022/02/22 02:44:04;;;;;;;8.07;2.95;;;6.00;99.90;;;;;;5028287;28;20056;-57
2022/02/22 02:46:30;;;;;;;9.93;2.77;;;5.90;99.90;;;;;;4998218;28;20026;-54
2022/02/22 02:48:55;;;;;;;10.10;3.50;;;5.90;99.90;;;;;;5015010;28;20544;-57
2022/02/22 02:51:24;;;;;;;14.43;3.33;;;5.80;99.90;;;;;;5015021;28;20057;-59
2022/02/22 02:53:51;;;;;;;16.70;5.00;;;5.80;99.90;;;;;;5015405;28;20041;-54
2022/02/22 02:56:22;;;;;;;13.40;4.10;;;5.80;99.90;;;;;;5016073;28;20044;-58
2022/02/22 02:58:49;;;;;;;17.00;4.20;;;5.70;99.90;;;;;;5022260;28;20049;-58
2022/02/22 03:01:15;;;;;;;23.25;3.92;;;5.70;99.90;;;;;;5015947;28;20498;-57
2022/02/22 03:03:40;;;;;;;24.30;4.72;;;5.70;99.90;;;;;;5014921;28;20049;-54
2022/02/22 03:06:06;;;;;;;23.60;6.53;;;5.60;99.90;;;;;;5014615;28;20037;-57
2022/02/22 03:08:32;;;;;;;21.15;5.97;;;5.60;99.90;;;;;;5013703;28;20033;-55
2022/02/22 03:10:57;;;;;;;19.98;5.68;;;5.60;99.90;;;;;;5015373;28;20507;-55
2022/02/22 03:13:23;;;;;;;19.60;5.70;;;5.70;99.90;;;;;;5015117;28;20065;-57
2022/02/22 03:15:48;;;;;;;16.20;4.68;;;5.70;99.90;;;;;;5014908;28;20068;-57
2022/02/22 03:18:14;;;;;;;13.70;4.20;;;5.60;99.90;;;;;;5015315;28;20042;-58
2022/02/22 03:20:39;;;;;;;19.45;4.80;;;5.60;99.90;;;;;;5015076;28;20037;-55
2022/02/22 03:23:05;;;;;;;18.60;4.95;;;5.50;99.90;;;;;;5013360;28;20048;-57
2022/02/22 03:25:31;;;;;;;18.02;4.60;;;5.50;99.90;;;;;;5014472;28;20389;-58
2022/02/22 03:27:58;;;;;;;18.42;4.35;;;5.50;99.90;;;;;;5015070;28;20061;-54
2022/02/22 03:30:24;;;;;;;21.80;4.97;;;5.50;99.90;;;;;;5015422;28;20026;-58
2022/02/22 03:32:51;;;;;;;22.45;4.97;;;5.50;99.90;;;;;;5014823;28;20409;-55
2022/02/22 03:35:16;;;;;;;23.45;5.07;;;5.50;99.90;;;;;;5015304;28;20060;-59
2022/02/22 03:37:42;;;;;;;17.27;5.22;;;5.50;99.90;;;;;;5014044;28;20410;-57
2022/02/22 03:40:08;;;;;;;21.98;5.03;;;5.50;99.90;;;;;;5014321;28;20052;-58
2022/02/22 03:42:34;;;;;;;23.13;5.15;;;5.40;99.90;;;;;;5016440;28;20169;-55
2022/02/22 03:44:59;;;;;;;21.10;4.82;;;5.40;99.90;;;;;;5027608;28;20041;-58
2022/02/22 03:47:25;;;;;;;20.85;5.55;;;5.40;99.90;;;;;;5014348;28;20385;-57
2022/02/22 03:49:50;;;;;;;27.23;5.25;;;5.30;99.90;;;;;;5014577;28;20034;-55
2022/02/22 03:52:16;;;;;;;21.52;5.95;;;5.40;99.90;;;;;;5013564;28;20065;-55
2022/02/22 03:54:41;;;;;;;17.92;6.18;;;5.40;99.90;;;;;;5013968;28;20045;-55
2022/02/22 03:57:07;;;;;;;19.15;5.50;;;5.40;99.90;;;;;;5013930;28;20037;-54
2022/02/22 03:59:32;;;;;;;25.60;4.72;;;5.40;99.90;;;;;;5013695;28;20083;-57
2022/02/22 04:01:58;;;;;;;18.63;4.78;;;5.40;99.90;;;;;;4995528;28;20037;-56
2022/02/22 04:04:24;;;;;;;17.02;4.90;;;5.40;99.90;;;;;;5013729;28;20028;-56
2022/02/22 04:06:49;;;;;;;15.38;4.05;;;5.40;99.90;;;;;;5013989;28;20052;-57
2022/02/22 04:09:15;;;;;;;19.02;4.00;;;5.30;99.90;;;;;;5012514;28;20520;-56
2022/02/22 04:11:40;;;;;;;16.90;4.82;;;5.20;99.90;;;;;;5014476;28;20533;-56
2022/02/22 04:14:06;;;;;;;21.83;4.50;;;5.00;99.90;;;;;;5013244;28;20556;-55
2022/02/22 04:16:31;;;;;;;15.30;3.70;;;4.90;99.90;;;;;;5013446;28;20042;-57
2022/02/22 04:18:57;;;;;;;13.35;4.28;;;4.80;99.90;;;;;;5013477;28;20037;-59
2022/02/22 04:21:22;;;;;;;11.57;3.15;;;4.60;99.90;;;;;;5012667;28;20030;-56
2022/02/22 04:23:48;;;;;;;7.68;3.60;;;4.60;99.90;;;;;;5012693;28;20026;-55
2022/02/22 04:26:13;;;;;;;11.48;3.72;;;4.50;99.90;;;;;;5013316;28;20034;-58
2022/02/22 04:28:39;;;;;;;19.00;4.80;;;4.40;99.90;;;;;;5013130;28;20390;-57
2022/02/22 04:31:05;;;;;;;14.10;3.22;;;4.40;99.90;;;;;;5013456;28;20107;-58
2022/02/22 04:33:31;;;;;;;13.93;3.65;;;4.40;99.90;;;;;;5012513;28;20030;-57
2022/02/22 04:35:56;;;;;;;12.15;4.07;;;4.30;99.90;;;;;;5013497;28;20037;-57
2022/02/22 04:38:22;;;;;;;13.82;3.67;;;4.30;99.90;;;;;;5013442;28;20087;-54
2022/02/22 04:40:47;;;;;;;9.00;3.05;;;4.30;99.90;;;;;;5012755;28;20050;-56
2022/02/22 04:43:13;;;;;;;12.38;3.28;;;4.40;99.90;;;;;;5019996;28;20030;-58
2022/02/22 04:45:39;;;;;;;16.67;4.30;;;4.40;99.90;;;;;;5020535;28;20072;-56
2022/02/22 04:48:05;;;;;;;12.20;3.25;;;4.30;99.90;;;;;;5011168;28;20030;-57
2022/02/22 04:50:33;;;;;;;11.93;3.10;;;4.40;99.90;;;;;;4995424;28;20069;-57
2022/02/22 04:52:59;;;;;;;12.35;3.90;;;4.50;99.90;;;;;;5011919;28;20046;-58
2022/02/22 04:55:24;;;;;;;10.50;3.33;;;4.50;99.90;;;;;;5012992;28;20038;-58
2022/02/22 04:57:50;;;;;;;12.30;4.53;;;4.60;99.90;;;;;;5012601;28;20041;-54
2022/02/22 05:00:16;;;;;;;14.52;4.97;;;4.60;99.90;;;;;;5013267;28;20041;-60
2022/02/22 05:02:42;;;;;;;13.23;3.38;;;4.60;99.90;;;;;;5012962;28;20550;-56
2022/02/22 05:05:08;;;;;;;12.32;3.88;;;4.50;99.90;;;;;;4998705;28;20073;-55
2022/02/22 05:07:34;;;;;;;15.98;3.50;;;4.60;99.90;;;;;;5017197;28;20025;-59
2022/02/22 05:10:00;;;;;;;18.27;4.28;;;4.60;99.90;;;;;;5016901;28;20037;-56
2022/02/22 05:12:26;;;;;;;14.23;4.28;;;4.60;99.90;;;;;;5016517;28;20034;-56
2022/02/22 05:14:54;;;;;;;12.23;4.10;;;4.60;99.90;;;;;;5016732;28;20078;-55
2022/02/22 05:17:20;;;;;;;18.00;4.55;;;4.70;99.90;;;;;;5016920;28;20051;-55
2022/02/22 05:19:45;;;;;;;17.85;4.82;;;4.60;99.90;;;;;;5016815;28;20026;-56
2022/02/22 05:22:11;;;;;;;23.75;5.63;;;4.60;99.90;;;;;;5015344;28;20034;-58
2022/02/22 05:24:36;;;;;;;19.13;5.60;;;4.70;99.90;;;;;;5015696;28;20022;-56
2022/02/22 05:27:02;;;;;;;18.92;4.72;;;4.70;99.90;;;;;;5016753;28;20076;-57
2022/02/22 05:29:28;;;;;;;24.00;5.38;;;4.70;99.90;;;;;;5018666;28;20044;-60
2022/02/22 05:31:53;;;;;;;20.25;4.38;;;4.70;99.90;;;;;;5016819;28;20112;-58
2022/02/22 05:34:19;;;;;;;17.83;5.07;;;4.70;99.90;;;;;;5016030;28;20045;-57
2022/02/22 05:36:44;;;;;;;18.95;5.90;;;4.70;99.90;;;;;;5016013;28;20084;-58
2022/02/22 05:39:10;;;;;;;21.30;4.60;;;4.80;99.90;;;;;;5014685;28;20056;-57
2022/02/22 05:41:36;;;;;;;21.15;5.57;;;4.80;99.90;;;;;;5016442;28;20084;-58
2022/02/22 05:44:01;;;;;;;21.38;5.03;;;4.90;99.90;;;;;;5030044;28;20045;-58
2022/02/22 05:46:27;;;;;;;19.55;4.97;;;4.90;99.90;;;;;;5016987;28;20057;-58
2022/02/22 05:48:52;;;;;;;26.13;4.78;;;4.90;99.90;;;;;;5014302;28;20478;-57
2022/02/22 05:51:18;;;;;;;21.20;5.38;;;4.90;99.90;;;;;;5015551;28;20038;-58
2022/02/22 05:53:44;;;;;;;25.60;5.57;;;4.80;99.90;;;;;;5015975;28;20022;-57
2022/02/22 05:56:10;;;;;;;20.08;6.05;;;4.80;99.90;;;;;;5014133;28;20033;-56
2022/02/22 05:58:37;;;;;;;21.05;5.43;;;4.80;99.90;;;;;;5015316;28;20030;-58
2022/02/22 06:01:03;;;;;;;18.75;5.00;;;4.80;99.90;;;;;;5015645;28;20026;-57
2022/02/22 06:03:28;;;;;;;20.30;5.30;;;4.80;99.90;;;;;;5018480;28;20033;-60
2022/02/22 06:05:54;;;;;;;30.33;5.55;;;4.80;99.90;;;;;;5016265;28;20034;-57
2022/02/22 06:08:20;;;;;;;16.42;4.75;;;4.60;99.90;;;;;;5016606;28;20386;-57
2022/02/22 06:10:48;;;;;;;16.33;5.63;;;4.70;99.90;;;;;;5015814;28;20038;-57
2022/02/22 06:13:14;;;;;;;24.20;5.70;;;4.70;99.90;;;;;;5013799;28;20475;-55
2022/02/22 06:15:39;;;;;;;23.23;5.55;;;4.80;99.90;;;;;;5015281;28;20065;-57
2022/02/22 06:18:05;;;;;;;24.80;5.60;;;4.80;99.90;;;;;;5015256;28;20066;-57
2022/02/22 06:20:32;;;;;;;24.02;6.40;;;4.70;99.90;;;;;;5000909;28;20045;-54
2022/02/22 06:22:58;;;;;;;27.25;7.32;;;4.70;99.90;;;;;;5015454;28;20490;-58
2022/02/22 06:25:26;;;;;;;22.65;7.55;;;4.70;99.90;;;;;;5014399;28;20034;-57
2022/02/22 06:27:53;;;;;;;16.50;5.53;;;4.70;99.90;;;;;;5016337;28;20033;-58
2022/02/22 06:30:21;;;;;;;21.25;5.18;;;4.80;99.90;;;;;;5015612;28;20033;-58
2022/02/22 06:32:47;;;;;;;18.05;5.55;;;4.80;99.90;;;;;;5016719;28;20502;-56
2022/02/22 06:35:13;;;;;;;23.63;6.55;;;4.80;99.90;;;;;;5015619;28;20057;-56
2022/02/22 06:37:39;;;;;;;23.95;6.28;;;4.80;99.90;;;;;;5015817;28;20368;-59
2022/02/22 06:40:06;;;;;;;25.00;6.75;;;4.90;99.90;;;;;;5017327;28;20041;-57
2022/02/22 06:42:33;;;;;;;19.27;5.05;;;4.90;99.90;;;;;;4998473;28;20033;-55
2022/02/22 06:44:59;;;;;;;28.90;5.63;;;4.80;99.90;;;;;;5002321;28;20022;-56
2022/02/22 06:47:24;;;;;;;25.13;5.63;;;4.80;99.90;;;;;;5014572;28;20061;-55
2022/02/22 06:49:50;;;;;;;18.13;5.47;;;4.70;99.90;;;;;;4996901;28;20508;-55
2022/02/22 06:52:16;;;;;;;16.50;5.50;;;4.80;99.90;;;;;;5014003;28;20692;-54
2022/02/22 06:54:41;;;;;;;15.85;5.80;;;4.80;99.90;;;;;;4995537;28;20429;-55
2022/02/22 06:57:07;;;;;;;18.05;4.78;;;4.90;99.90;;;;;;5012756;28;20034;-53
2022/02/22 06:59:36;;;;;;;20.13;5.35;;;4.90;99.90;;;;;;5013454;28;20062;-58
2022/02/22 07:02:01;;;;;;;19.60;5.60;;;4.90;99.90;;;;;;5012818;28;20030;-57
2022/02/22 07:04:27;;;;;;;20.52;5.35;;;5.00;99.90;;;;;;5011516;28;20041;-60
2022/02/22 07:06:52;;;;;;;19.33;6.13;;;4.90;99.90;;;;;;5011709;28;20390;-53
2022/02/22 07:09:19;;;;;;;20.27;5.82;;;4.90;99.90;;;;;;5011813;28;20405;-56
2022/02/22 07:11:45;;;;;;;19.35;6.25;;;4.90;99.90;;;;;;5015056;28;20038;-57
2022/02/22 07:14:10;;;;;;;18.67;4.97;;;4.90;99.90;;;;;;5012555;28;20140;-57
2022/02/22 07:16:36;;;;;;;25.65;7.05;;;5.00;99.90;;;;;;5015002;28;20046;-55
2022/02/22 07:19:02;;;;;;;19.98;5.95;;;5.10;99.90;;;;;;5005236;28;20037;-57
2022/02/22 07:21:28;;;;;;;24.67;6.57;;;5.00;99.90;;;;;;5011947;28;20060;-57
2022/02/22 07:23:54;;;;;;;18.90;4.93;;;4.90;99.90;;;;;;5012638;28;20486;-57
2022/02/22 07:26:19;;;;;;;22.48;5.47;;;4.80;99.90;;;;;;5014493;28;20034;-58
2022/02/22 07:28:45;;;;;;;19.23;4.47;;;4.80;99.90;;;;;;5012616;28;20041;-59
2022/02/22 07:31:11;;;;;;;20.15;4.32;;;5.00;99.90;;;;;;5012297;28;20037;-59
2022/02/22 07:33:38;;;;;;;13.07;4.65;;;4.90;99.90;;;;;;5012310;28;20102;-58
2022/02/22 07:36:07;;;;;;;14.93;5.00;;;4.80;99.90;;;;;;5012267;28;20045;-59
2022/02/22 07:38:33;;;;;;;14.75;4.95;;;4.70;99.90;;;;;;5012620;28;20084;-56
2022/02/22 07:41:00;;;;;;;14.50;4.38;;;4.80;99.90;;;;;;5009126;28;20034;-58
2022/02/22 07:43:25;;;;;;;12.65;4.15;;;4.80;99.90;;;;;;5009935;28;20026;-58
2022/02/22 07:45:51;;;;;;;12.68;4.95;;;4.70;99.90;;;;;;5012004;28;20399;-54
2022/02/22 07:48:16;;;;;;;9.50;4.43;;;4.70;99.90;;;;;;5012115;28;20116;-57
2022/02/22 07:50:42;;;;;;;16.92;5.45;;;4.80;99.90;;;;;;5010718;28;20037;-58
2022/02/22 07:53:08;;;;;;;21.42;5.03;;;4.90;99.90;;;;;;5000636;28;20073;-55
2022/02/22 07:55:34;;;;;;;22.23;4.65;;;4.90;99.90;;;;;;5008978;28;20435;-57
2022/02/22 07:57:59;;;;;;;27.77;7.63;;;4.90;99.90;;;;;;5011422;28;20056;-56
2022/02/22 08:00:25;;;;;;;18.33;5.20;;;4.90;99.90;;;;;;5013133;28;20036;-55
2022/02/22 08:02:54;;;;;;;26.48;5.85;;;5.00;99.90;;;;;;5012988;28;20044;-56
2022/02/22 08:05:20;;;;;;;17.20;5.32;;;5.00;99.90;;;;;;5006498;28;20030;-55
2022/02/22 08:07:46;;;;;;;17.17;5.57;;;4.90;99.90;;;;;;5016617;28;20049;-57
2022/02/22 08:10:12;;;;;;;14.45;5.38;;;5.00;99.90;;;;;;5029292;28;20030;-57
2022/02/22 08:12:38;;;;;;;15.50;4.25;;;4.90;99.90;;;;;;5009642;28;20030;-57
2022/02/22 08:15:05;;;;;;;21.60;5.68;;;5.00;99.90;;;;;;4994099;28;20034;-58
2022/02/22 08:17:31;;;;;;;13.90;5.97;;;5.00;99.90;;;;;;4990168;28;20041;-57
2022/02/22 08:19:56;;;;;;;18.35;5.32;;;5.00;99.90;;;;;;5018509;28;20041;-57
2022/02/22 08:22:22;;;;;;;16.58;5.00;;;5.20;99.90;;;;;;5024162;28;20121;-57
2022/02/22 08:24:47;;;;;;;26.83;5.60;;;5.20;99.90;;;;;;5013104;28;20494;-57
2022/02/22 08:27:14;;;;;;;22.98;5.72;;;5.30;99.90;;;;;;5010545;28;20068;-58
2022/02/22 08:29:40;;;;;;;19.23;6.32;;;5.30;99.90;;;;;;5013542;28;20033;-59
2022/02/22 08:32:06;;;;;;;30.80;5.80;;;5.10;99.90;;;;;;5013921;28;20033;-58
2022/02/22 08:34:31;;;;;;;22.48;5.50;;;5.20;99.90;;;;;;5015796;28;20071;-57
2022/02/22 08:36:57;;;;;;;26.52;7.05;;;5.30;99.90;;;;;;5010352;28;20592;-56
2022/02/22 08:39:24;;;;;;;20.60;5.10;;;5.30;99.90;;;;;;5015984;28;20057;-57
2022/02/22 08:41:50;;;;;;;17.75;5.05;;;5.40;99.90;;;;;;4998860;28;20100;-57
2022/02/22 08:44:17;;;;;;;17.90;4.78;;;5.50;99.90;;;;;;5016136;28;20502;-55
2022/02/22 08:46:42;;;;;;;20.15;5.88;;;5.70;99.90;;;;;;5020274;28;20482;-57
2022/02/22 08:49:08;;;;;;;21.05;6.05;;;5.70;99.90;;;;;;5017010;28;20037;-60
2022/02/22 08:51:33;;;;;;;20.60;6.07;;;5.90;99.90;;;;;;5015738;28;20034;-57
2022/02/22 08:53:59;;;;;;;27.83;6.43;;;5.70;99.90;;;;;;5015310;28;20030;-58
2022/02/22 08:56:25;;;;;;;19.50;5.00;;;5.70;99.90;;;;;;5016177;28;20048;-55
2022/02/22 08:58:52;;;;;;;20.08;4.95;;;5.60;99.90;;;;;;4999585;28;20101;-57
2022/02/22 09:01:18;;;;;;;21.63;5.40;;;5.80;99.90;;;;;;5017215;28;20521;-59
2022/02/22 09:03:44;;;;;;;21.40;6.15;;;5.90;99.90;;;;;;4999147;28;20662;-57
2022/02/22 09:06:10;;;;;;;20.90;5.50;;;5.80;99.90;;;;;;4999567;28;20049;-56
2022/02/22 09:08:36;;;;;;;19.30;5.90;;;5.80;99.90;;;;;;5015109;28;20034;-55
2022/02/22 09:11:01;;;;;;;16.70;4.95;;;5.80;99.90;;;;;;5018116;28;20034;-59
2022/02/22 09:13:27;;;;;;;22.65;5.45;;;5.90;99.90;;;;;;5016226;28;20025;-59
2022/02/22 09:15:53;;;;;;;19.40;5.35;;;5.80;99.90;;;;;;5015513;28;20033;-61
2022/02/22 09:18:19;;;;;;;19.55;5.00;;;5.90;99.90;;;;;;5016420;28;20061;-61
2022/02/22 09:20:45;;;;;;;18.63;4.60;;;5.90;99.90;;;;;;5015273;28;20029;-59
2022/02/22 09:23:11;;;;;;;14.90;4.35;;;5.90;99.90;;;;;;5015502;28;20132;-60
2022/02/22 09:25:37;;;;;;;18.88;4.53;;;5.90;99.90;;;;;;5018739;28;20049;-55
2022/02/22 09:28:09;;;;;;;17.08;5.55;;;6.00;99.90;;;;;;5016330;28;20037;-59
2022/02/22 09:30:36;;;;;;;21.33;5.28;;;6.00;99.90;;;;;;5017053;28;20037;-57
2022/02/22 09:33:03;;;;;;;20.85;4.95;;;6.10;99.90;;;;;;5014253;28;20038;-59
2022/02/22 09:35:29;;;;;;;18.27;5.00;;;6.10;99.90;;;;;;5025876;28;20033;-59
2022/02/22 09:37:56;;;;;;;14.43;4.85;;;6.10;99.90;;;;;;5035218;28;20436;-59
2022/02/22 09:40:23;;;;;;;16.88;4.78;;;6.30;99.90;;;;;;5035792;28;20037;-60
2022/02/22 09:42:48;;;;;;;16.83;4.40;;;6.20;99.60;;;;;;5016257;28;20478;-57
2022/02/22 09:45:15;;;;;;;19.83;4.97;;;6.10;99.50;;;;;;5015879;28;20076;-59
2022/02/22 09:47:42;;;;;;;21.38;5.03;;;6.20;99.30;;;;;;5016086;28;20140;-60
2022/02/22 09:50:09;;;;;;;16.60;4.97;;;6.10;99.30;;;;;;5014780;28;20026;-59
2022/02/22 09:52:35;;;;;;;16.30;4.53;;;6.20;98.90;;;;;;5015290;28;20041;-58
2022/02/22 09:55:02;;;;;;;27.85;7.45;;;6.20;98.90;;;;;;5016475;28;20092;-54
2022/02/22 09:57:27;;;;;;;21.67;5.32;;;6.40;98.30;;;;;;5015475;28;20498;-57
2022/02/22 09:59:53;;;;;;;30.58;6.70;;;6.60;96.80;;;;;;5015813;28;20025;-60
2022/02/22 10:02:19;;;;;;;19.83;4.85;;;6.60;96.10;;;;;;4998427;28;20354;-58
2022/02/22 10:04:47;;;;;;;20.02;5.47;;;6.60;96.00;;;;;;5016436;28;20040;-58
2022/02/22 10:07:13;;;;;;;14.18;4.72;;;6.70;95.60;;;;;;5015739;28;20038;-57
2022/02/22 10:09:55;;;;;;;23.42;5.82;;;6.60;95.40;;;;;;5016597;28;20034;-56
2022/02/22 10:12:38;;;;;;;23.33;5.68;;;6.60;95.40;;;;;;5015567;28;20034;-58
2022/02/22 10:15:07;;;;;;;21.63;5.95;;;6.60;95.60;;;;;;5016510;28;20036;-58
2022/02/22 10:17:40;;;;;;;22.33;5.10;;;6.50;95.80;;;;;;5016426;28;20033;-58
2022/02/22 10:20:09;;;;;;;24.37;6.47;;;6.70;95.30;;;;;;5016219;28;20030;-58
2022/02/22 10:22:46;;;;;;;27.45;5.47;;;6.60;95.00;;;;;;5014610;28;20107;-56
2022/02/22 10:25:11;;;;;;;22.45;5.63;;;6.60;94.10;;;;;;5015758;28;20060;-58
2022/02/22 10:27:58;;;;;;;25.20;4.85;;;6.70;93.60;;;;;;5014400;28;20549;-57
2022/02/22 10:30:34;;;;;;;25.58;5.35;;;6.80;93.70;;;;;;4998581;28;20129;-58
2022/02/22 10:33:00;;;;;;;21.92;4.80;;;6.80;93.20;;;;;;5015269;28;20125;-59
2022/02/22 10:35:31;;;;;;;17.77;5.30;;;6.90;93.70;;;;;;5008618;28;20053;-58
2022/02/22 10:37:57;;;;;;;17.15;4.70;;;6.90;91.70;;;;;;5036357;28;20057;-56
2022/02/22 10:40:27;;;;;;;19.80;5.00;;;6.90;90.40;;;;;;5035999;28;20045;-53
2022/02/22 10:42:53;;;;;;;14.10;3.90;;;6.80;90.40;;;;;;4996591;28;20136;-59
2022/02/22 10:45:20;;;;;;;13.40;4.00;;;6.90;90.20;;;;;;5006031;28;20581;-56
2022/02/22 10:47:47;;;;;;;16.33;5.07;;;6.90;88.00;;;;;;5016103;28;20049;-56
2022/02/22 10:50:13;;;;;;;23.90;4.65;;;7.00;86.80;;;;;;5015189;28;20037;-55
2022/02/22 10:52:39;;;;;;;13.02;4.20;;;7.10;87.50;;;;;;5015214;28;20034;-57
2022/02/22 10:55:04;;;;;;;14.55;4.00;;;7.30;86.60;;;;;;5015202;28;20092;-57
2022/02/22 10:57:31;;;;;;;13.82;4.32;;;7.30;87.10;;;;;;5015208;28;20101;-58
2022/02/22 10:59:57;;;;;;;9.52;3.53;;;7.30;86.20;;;;;;5015334;28;20044;-60
2022/02/22 11:02:23;;;;;;;18.00;4.35;;;7.30;86.70;;;;;;5014461;28;20034;-58
2022/02/22 11:04:49;;;;;;;13.48;5.53;;;7.30;86.30;;;;;;5014926;28;20061;-57
2022/02/22 11:07:18;;;;;;;20.50;4.53;;;7.40;87.20;;;;;;5013728;28;20030;-60
2022/02/22 11:09:46;;;;;;;18.30;4.88;;;7.40;87.60;;;;;;5014998;28;20030;-58
2022/02/22 11:12:25;;;;;;;20.02;5.30;;;7.60;88.10;;;;;;5014890;28;20096;-53
2022/02/22 11:14:51;;;;;;;12.25;3.97;;;7.60;86.00;;;;;;4998098;28;20038;-59
2022/02/22 11:17:22;;;;;;;13.93;3.80;;;7.70;85.70;;;;;;5014867;28;20041;-58
2022/02/22 11:19:50;;;;;;;13.90;4.60;;;7.50;84.70;;;;;;5014596;28;20111;-57
2022/02/22 11:22:23;;;;;;;15.63;3.90;;;7.40;84.40;;;;;;5013474;28;20022;-59
2022/02/22 11:24:57;;;;;;;14.75;4.10;;;7.30;85.50;;;;;;5014551;28;20644;-60
2022/02/22 11:27:35;;;;;;;14.63;4.43;;;7.40;86.10;;;;;;5014378;28;20072;-57
2022/02/22 11:30:26;;;;;;;16.20;4.93;;;7.60;88.00;;;;;;5015065;28;20074;-56
2022/02/22 11:33:03;;;;;;;20.10;5.00;;;7.60;90.60;;;;;;5006295;28;20038;-56
2022/02/22 11:35:29;;;;;;;26.02;4.95;;;7.60;91.50;;;;;;5025278;28;20045;-59
2022/02/22 11:38:07;;;;;;;18.20;4.78;;;7.60;91.90;;;;;;5034042;28;20225;-57
2022/02/22 11:40:33;;;;;;;21.63;5.90;;;7.70;91.70;;;;;;5033348;28;20036;-57
2022/02/22 11:43:14;;;;;;;19.25;5.32;;;7.60;92.00;;;;;;5013742;28;20133;-56
2022/02/22 11:45:42;;;;;;;23.05;6.32;;;7.50;91.50;;;;;;5015518;28;20100;-58
2022/02/22 11:48:26;;;;;;;17.23;4.72;;;7.40;91.60;;;;;;5014588;28;20026;-56
2022/02/22 11:50:57;;;;;;;16.92;4.63;;;7.60;92.30;;;;;;5014353;28;20026;-58
2022/02/22 11:53:25;;;;;;;13.23;4.65;;;7.70;92.40;;;;;;4996983;28;20030;-58
2022/02/22 11:55:51;;;;;;;22.10;5.15;;;7.60;92.90;;;;;;4997758;28;20038;-56
2022/02/22 11:58:24;;;;;;;17.67;4.72;;;7.60;93.10;;;;;;5014184;28;20030;-57
2022/02/22 12:00:55;;;;;;;15.25;4.95;;;7.60;92.40;;;;;;5013976;28;20029;-57
2022/02/22 12:03:22;;;;;;;17.77;4.75;;;7.60;92.50;;;;;;5013140;28;20026;-57
2022/02/22 12:05:57;;;;;;;16.65;4.45;;;7.70;92.80;;;;;;5013447;28;20034;-58
2022/02/22 12:08:24;;;;;;;;;;;7.90;92.90;;;;;;4996039;28;20061;-58
2022/02/22 12:10:52;;;;;;;21.52;4.90;;;7.90;91.90;;;;;;5013544;28;19917;-60
2022/02/22 12:13:23;;;;;;;10.10;3.97;;;7.90;92.00;;;;;;5012635;28;20025;-58
2022/02/22 12:15:49;;;;;;;19.67;5.53;;;8.10;91.70;;;;;;4996724;28;20038;-55
2022/02/22 12:18:22;;;;;;;18.52;4.55;;;8.20;91.40;;;;;;5011893;28;20124;-59
2022/02/22 12:20:50;;;;;;;13.90;4.40;;;8.20;91.40;;;;;;5013270;28;20034;-57
2022/02/22 12:23:21;;;;;;;14.55;4.93;;;8.10;91.60;;;;;;5013465;28;20069;-59
2022/02/22 12:25:47;;;;;;;16.40;4.18;;;8.30;91.40;;;;;;5015312;28;20026;-59
2022/02/22 12:28:13;;;;;;;17.10;5.22;;;8.40;91.60;;;;;;5016836;28;20036;-62
2022/02/22 12:30:41;;;;;;;13.82;4.35;;;8.20;90.50;;;;;;5015452;28;20558;-54
2022/02/22 12:33:07;;;;;;;11.27;3.60;;;8.00;90.50;;;;;;5014457;28;20129;-58
2022/02/22 12:35:40;;;;;;;15.60;4.70;;;8.00;90.70;;;;;;5025222;28;20643;-57
2022/02/22 12:38:17;;;;;;;13.32;4.00;;;8.20;90.20;;;;;;5033045;28;20049;-59
2022/02/22 12:40:44;;;;;;;13.82;4.18;;;8.10;91.00;;;;;;5030769;28;20148;-57
2022/02/22 12:43:11;;;;;;;16.38;4.97;;;8.10;91.00;;;;;;5012638;28;20026;-59
2022/02/22 12:45:46;;;;;;;14.07;4.43;;;7.90;91.10;;;;;;5012617;28;20714;-57
2022/02/22 12:48:14;;;;;;;18.33;4.57;;;7.90;91.60;;;;;;5013224;28;20022;-59